Time;durP1;ratioP1;P1;durP2;ratioP2;P2;SDS_P1;SDS_P2;PMS_P1;PMS_P2;Temp;Humidity;BMP_temperature;BMP_pressure;BME280_temperature;BME280_humidity;BME280_pressure;Samples;Min_cycle;Max_cycle;Signal;HPM_P1;HPM_P2
2023/06/30 00:02:08;;;;;;;;;;;21.90;51.10;;;17.96;96.28;95211.81;4972608;28;19944;-45
2023/06/30 00:04:35;;;;;;;;;;;21.80;51.10;;;17.94;96.74;95200.56;4961837;28;19914;-46
2023/06/30 00:07:01;;;;;;;;;;;21.80;51.30;;;17.92;97.19;95198.16;4965657;28;19933;-43
2023/06/30 00:09:27;;;;;;;;;;;21.80;51.40;;;17.90;97.35;95200.41;4976282;28;20016;-44
2023/06/30 00:11:55;;;;;;;;;;;21.70;51.40;;;17.88;97.60;95188.38;4972236;28;19913;-44
2023/06/30 00:14:22;;;;;;;;;;;21.70;51.50;;;17.86;97.62;95180.59;4958627;28;19941;-45
2023/06/30 00:16:49;;;;;;;;;;;21.70;51.60;;;17.80;97.22;95187.28;4973977;28;20287;-45
2023/06/30 00:19:17;;;;;;;;;;;21.70;51.70;;;17.75;97.69;95182.03;4971500;28;19914;-48
2023/06/30 00:21:43;;;;;;;;;;;21.60;51.70;;;17.71;98.18;95168.41;4975582;28;19918;-49
2023/06/30 00:24:10;;;;;;;;;;;21.60;51.80;;;17.65;100.00;95179.66;4966080;28;19910;-45
2023/06/30 00:26:37;;;;;;;;;;;21.50;51.90;;;17.64;99.81;95178.06;4974988;28;19913;-45
2023/06/30 00:29:03;;;;;;;;;;;21.50;52.00;;;17.60;100.00;95169.03;4971576;28;20043;-47
2023/06/30 00:31:29;;;;;;;;;;;21.50;52.10;;;17.57;100.00;95176.63;4955975;28;20005;-48
2023/06/30 00:33:55;;;;;;;;;;;21.40;52.20;;;17.54;100.00;95173.81;4971293;28;19920;-47
2023/06/30 00:36:21;;;;;;;;;;;21.40;52.30;;;17.51;100.00;95172.53;4967638;28;19918;-45
2023/06/30 00:38:47;;;;;;;;;;;21.40;52.40;;;17.55;100.00;95170.03;4971174;28;20381;-46
2023/06/30 00:41:13;;;;;;;;;;;21.30;52.50;;;17.52;100.00;95165.28;4966226;28;19949;-47
2023/06/30 00:43:39;;;;;;;;;;;21.30;52.60;;;17.52;100.00;95165.28;4966903;28;20008;-45
2023/06/30 00:46:06;;;;;;;;;;;21.30;52.70;;;17.49;100.00;95164.00;4975211;28;20009;-48
2023/06/30 00:48:32;;;;;;;;;;;21.30;52.80;;;17.46;100.00;95156.56;4962738;28;19957;-46
2023/06/30 00:50:58;;;;;;;;;;;21.30;52.90;;;17.45;100.00;95152.25;4975239;28;19947;-48
2023/06/30 00:53:27;;;;;;;;;;;21.30;52.90;;;17.44;100.00;95150.69;4971318;28;19914;-47
2023/06/30 00:55:53;;;;;;;;;;;21.30;53.00;;;17.46;100.00;95148.47;4974441;28;20339;-45
2023/06/30 00:58:18;;;;;;;;;;;21.30;53.00;;;17.46;100.00;95153.88;4962023;28;19980;-46
2023/06/30 01:00:44;;;;;;;;;;;21.30;53.10;;;17.46;100.00;95153.88;4966345;28;19956;-45
2023/06/30 01:03:39;;;;;;;;;;;21.30;53.20;;;17.47;100.00;95152.75;4973974;28;19920;-47
2023/06/30 01:06:24;;;;;;;;;;;21.30;53.30;;;17.48;100.00;95156.22;4958996;28;19949;-48
2023/06/30 01:09:11;;;;;;;;;;;21.30;53.30;;;17.48;100.00;95158.91;4951168;28;19917;-47
2023/06/30 01:11:37;;;;;;;;;;;21.30;53.40;;;17.46;100.00;95163.84;4985423;28;19910;-46
2023/06/30 01:14:06;;;;;;;;;;;21.30;53.50;;;17.46;100.00;95163.84;4973216;28;20387;-49
2023/06/30 01:16:34;;;;;;;;;;;21.30;53.50;;;17.45;100.00;95160.34;4988498;28;19911;-45
2023/06/30 01:19:11;;;;;;;;;;;21.30;53.60;;;17.45;100.00;95148.78;4961131;28;19916;-48
2023/06/30 01:21:40;;;;;;;;;;;21.30;53.60;;;17.43;100.00;95141.03;4985519;28;20365;-46
2023/06/30 01:24:09;;;;;;;;;;;21.30;53.60;;;17.40;100.00;95138.97;4973069;28;19921;-45
2023/06/30 01:26:37;;;;;;;;;;;21.30;53.60;;;17.38;100.00;95141.19;4973741;28;19921;-47
2023/06/30 01:29:06;;;;;;;;;;;21.30;53.70;;;17.32;100.00;95139.78;4984550;28;20297;-46
2023/06/30 01:31:33;;;;;;;;;;;21.20;53.70;;;17.28;100.00;95138.81;4960433;28;19914;-46
2023/06/30 01:34:00;;;;;;;;;;;21.20;53.80;;;17.27;100.00;95140.72;4974784;28;19917;-47
2023/06/30 01:36:26;;;;;;;;;;;21.20;53.80;;;17.28;100.00;95136.94;4953441;28;19945;-47
2023/06/30 01:38:52;;;;;;;;;;;21.20;54.00;;;17.26;100.00;95132.97;4966996;28;19909;-45
2023/06/30 01:41:20;;;;;;;;;;;21.10;54.00;;;17.30;100.00;95144.69;4968307;28;19910;-45
2023/06/30 01:43:49;;;;;;;;;;;21.10;54.10;;;17.29;100.00;95137.72;4967276;28;19910;-45
2023/06/30 01:46:16;;;;;;;;;;;21.20;54.20;;;17.29;100.00;95143.88;4974081;28;19914;-45
2023/06/30 01:48:43;;;;;;;;;;;21.10;54.20;;;17.27;100.00;95139.94;4985247;28;19972;-44
2023/06/30 01:51:12;;;;;;;;;;;21.10;54.30;;;17.28;100.00;95145.00;4948649;28;20288;-45
2023/06/30 01:53:39;;;;;;;;;;;21.10;54.30;;;17.29;100.00;95140.41;4966301;28;19960;-46
2023/06/30 01:56:05;;;;;;;;;;;21.10;54.40;;;17.26;100.00;95131.06;4965832;28;20412;-45
2023/06/30 01:58:31;;;;;;;;;;;21.20;54.40;;;17.26;100.00;95133.75;4974255;28;19918;-47
2023/06/30 02:00:57;;;;;;;;;;;21.10;54.40;;;17.26;100.00;95131.06;4962454;28;19916;-45
2023/06/30 02:03:23;;;;;;;;;;;21.10;54.40;;;17.23;100.00;95131.69;4974283;28;20040;-46
2023/06/30 02:05:50;;;;;;;;;;;21.10;54.40;;;17.21;100.00;95135.84;4971402;28;20393;-46
2023/06/30 02:08:16;;;;;;;;;;;21.10;54.40;;;17.19;100.00;95135.34;4969336;28;19909;-45
2023/06/30 02:10:42;;;;;;;;;;;21.10;54.40;;;17.16;100.00;95131.38;4974189;28;19933;-48
2023/06/30 02:13:08;;;;;;;;;;;21.10;54.40;;;17.14;100.00;95136.28;4962289;28;20677;-47
2023/06/30 02:15:34;;;;;;;;;;;21.10;54.50;;;17.11;100.00;95126.97;4973922;28;20047;-45
2023/06/30 02:18:00;;;;;;;;;;;21.10;54.50;;;17.10;100.00;95135.34;4963529;28;19983;-47
2023/06/30 02:20:25;;;;;;;;;;;21.00;54.50;;;17.09;100.00;95137.25;4973567;28;19929;-47
2023/06/30 02:22:51;;;;;;;;;;;21.00;54.60;;;17.09;100.00;95136.47;4964431;28;20265;-49
2023/06/30 02:25:17;;;;;;;;;;;21.00;54.60;;;17.06;100.00;95132.50;4969532;28;20343;-47
2023/06/30 02:27:45;;;;;;;;;;;21.00;54.70;;;17.05;100.00;95124.75;4973075;28;19909;-48
2023/06/30 02:30:13;;;;;;;;;;;21.00;54.70;;;17.04;100.00;95125.84;4960219;28;20028;-46
2023/06/30 02:32:40;;;;;;;;;;;21.00;54.80;;;17.01;100.00;95123.78;4973478;28;19913;-46
2023/06/30 02:35:08;;;;;;;;;;;21.00;54.80;;;16.99;100.00;95124.13;4969675;28;20403;-45
2023/06/30 02:37:34;;;;;;;;;;;21.00;54.80;;;16.98;100.00;95119.03;4963736;28;20390;-48
2023/06/30 02:39:59;;;;;;;;;;;20.90;54.80;;;16.94;100.00;95108.13;4973259;28;19914;-46
2023/06/30 02:42:25;;;;;;;;;;;20.90;54.80;;;16.89;100.00;95116.34;4969348;28;19909;-46
2023/06/30 02:44:51;;;;;;;;;;;20.90;54.90;;;16.87;100.00;95108.59;4973404;28;19996;-47
2023/06/30 02:47:17;;;;;;;;;;;20.90;54.90;;;16.87;100.00;95110.50;4969007;28;19910;-46
2023/06/30 02:49:42;;;;;;;;;;;20.90;55.00;;;16.85;100.00;95105.41;4969537;28;20315;-45
2023/06/30 02:52:09;;;;;;;;;;;20.90;55.00;;;16.83;100.00;95106.84;4973154;28;19924;-47
2023/06/30 02:54:35;;;;;;;;;;;20.80;55.00;;;16.77;100.00;95108.91;4960514;28;19917;-46
2023/06/30 02:57:00;;;;;;;;;;;20.80;55.10;;;16.76;100.00;95111.91;4955656;28;19910;-47
2023/06/30 02:59:26;;;;;;;;;;;20.70;55.10;;;16.75;100.00;95105.72;4966069;28;19984;-49
2023/06/30 03:01:52;;;;;;;;;;;20.70;55.20;;;16.71;100.00;95104.75;4973428;28;19917;-49
2023/06/30 03:04:17;;;;;;;;;;;20.70;55.30;;;16.72;100.00;95106.31;4973052;28;19945;-48
2023/06/30 03:06:43;;;;;;;;;;;20.70;55.30;;;16.69;100.00;95106.97;4959739;28;19914;-44
2023/06/30 03:09:09;;;;;;;;;;;20.70;55.40;;;16.65;100.00;95100.63;4968955;28;19909;-46
2023/06/30 03:11:34;;;;;;;;;;;20.70;55.50;;;16.60;100.00;95103.47;4965916;28;19914;-49
2023/06/30 03:14:00;;;;;;;;;;;20.60;55.50;;;16.61;100.00;95099.69;4969035;28;19918;-45
2023/06/30 03:16:26;;;;;;;;;;;20.60;55.60;;;16.60;100.00;95098.09;4961088;28;19957;-51
2023/06/30 03:18:52;;;;;;;;;;;20.60;55.60;;;16.61;100.00;95100.47;4968175;28;20444;-45
2023/06/30 03:21:18;;;;;;;;;;;20.60;55.70;;;16.59;100.00;95094.59;4968170;28;19917;-45
2023/06/30 03:23:45;;;;;;;;;;;20.50;55.60;;;16.57;100.00;95096.81;4963544;28;19914;-48
2023/06/30 03:26:13;;;;;;;;;;;20.60;55.80;;;16.54;100.00;95096.66;4963238;28;19932;-47
2023/06/30 03:28:39;;;;;;;;;;;20.50;55.70;;;16.52;100.00;95099.66;4969187;28;19917;-45
2023/06/30 03:31:05;;;;;;;;;;;20.50;55.80;;;16.52;100.00;95099.66;4962796;28;20008;-47
2023/06/30 03:33:30;;;;;;;;;;;20.50;55.80;;;16.51;100.00;95105.34;4972757;28;21190;-48
2023/06/30 03:35:56;;;;;;;;;;;20.50;55.90;;;16.49;100.00;95110.25;4952406;28;19949;-48
2023/06/30 03:38:22;;;;;;;;;;;20.50;56.00;;;16.48;100.00;95119.41;4968791;28;19910;-47
2023/06/30 03:40:48;;;;;;;;;;;20.50;56.00;;;16.48;100.00;95116.72;4976736;28;19910;-47
2023/06/30 03:43:13;;;;;;;;;;;20.50;56.00;;;16.47;100.00;95112.47;4972424;28;19909;-46
2023/06/30 03:45:39;;;;;;;;;;;20.50;56.10;;;16.50;100.00;95122.59;4976846;28;19957;-49
2023/06/30 03:48:05;;;;;;;;;;;20.50;56.20;;;16.53;100.00;95133.50;4967712;28;19917;-46
2023/06/30 03:50:31;;;;;;;;;;;20.50;56.20;;;16.57;100.00;95136.34;4976694;28;19914;-45
2023/06/30 03:52:57;;;;;;;;;;;20.50;56.30;;;16.61;100.00;95137.31;4956947;28;20445;-46
2023/06/30 03:55:23;;;;;;;;;;;20.60;56.60;;;16.66;100.00;95140.63;4948441;28;19918;-45
2023/06/30 03:57:48;;;;;;;;;;;20.60;56.80;;;16.71;100.00;95136.25;4968609;28;19916;-45
2023/06/30 04:00:15;;;;;;;;;;;20.60;57.10;;;16.75;100.00;95134.50;4972727;28;20287;-48
2023/06/30 04:02:41;;;;;;;;;;;20.60;57.50;;;16.83;100.00;95131.06;4976202;28;19920;-45
2023/06/30 04:05:06;;;;;;;;;;;20.70;57.80;;;16.90;100.00;95138.66;4971218;28;20731;-50
2023/06/30 04:07:32;;;;;;;;;;;20.70;57.70;;;16.92;100.00;95136.44;4961474;28;19949;-51
2023/06/30 04:09:58;;;;;;;;;;;20.70;57.80;;;17.00;100.00;95135.66;4976587;28;19916;-49
2023/06/30 04:12:24;;;;;;;;;;;20.80;58.00;;;17.05;100.00;95132.81;4964243;28;19917;-45
2023/06/30 04:14:49;;;;;;;;;;;20.90;57.90;;;17.09;100.00;95137.25;4976315;28;20411;-45
2023/06/30 04:17:15;;;;;;;;;;;20.90;57.80;;;17.14;100.00;95140.88;4973513;28;19914;-48
2023/06/30 04:19:41;;;;;;;;;;;20.90;57.70;;;17.18;100.00;95142.63;4967325;28;20032;-47
2023/06/30 04:22:07;;;;;;;;;;;21.00;57.70;;;17.23;100.00;95144.34;4975754;28;20376;-46
2023/06/30 04:24:33;;;;;;;;;;;21.10;57.70;;;17.27;100.00;95150.72;4965003;28;19917;-46
2023/06/30 04:26:59;;;;;;;;;;;21.10;57.90;;;17.28;100.00;95150.38;4968649;28;19909;-48
2023/06/30 04:29:25;;;;;;;;;;;21.20;58.20;;;17.33;100.00;95154.84;4974020;28;20335;-45
2023/06/30 04:31:50;;;;;;;;;;;21.20;57.50;;;17.33;100.00;95158.31;4976105;28;19913;-49
2023/06/30 04:34:16;;;;;;;;;;;21.30;57.70;;;17.35;100.00;95161.44;4975776;28;20012;-49
2023/06/30 04:36:42;;;;;;;;;;;21.40;57.80;;;17.39;100.00;95153.53;4963900;28;19957;-46
2023/06/30 04:39:08;;;;;;;;;;;21.40;57.90;;;17.43;100.00;95153.72;4973707;28;20360;-47
2023/06/30 04:41:33;;;;;;;;;;;21.50;58.10;;;17.46;100.00;95158.47;4968468;28;19956;-49
2023/06/30 04:43:59;;;;;;;;;;;21.50;58.20;;;17.52;100.00;95154.50;4973310;28;20353;-45
2023/06/30 04:46:26;;;;;;;;;;;21.60;58.20;;;17.62;100.00;95154.16;4975720;28;19909;-45
2023/06/30 04:48:53;;;;;;;;;;;21.70;58.20;;;17.71;100.00;95157.63;4962011;28;19948;-46
2023/06/30 04:51:19;;;;;;;;;;;21.80;58.10;;;17.80;100.00;95150.34;4974472;28;19909;-46
2023/06/30 04:53:45;;;;;;;;;;;21.90;58.00;;;17.89;99.72;95147.63;4958914;28;20312;-50
2023/06/30 04:56:10;;;;;;;;;;;22.00;57.90;;;17.96;96.88;95153.31;4978489;23;20020;-48
2023/06/30 04:58:36;;;;;;;;;;;22.10;58.10;;;18.07;94.55;95156.44;4974126;28;20016;-52
2023/06/30 05:01:04;;;;;;;;;;;22.20;57.90;;;18.22;92.41;95157.81;4966913;28;19910;-51
2023/06/30 05:03:31;;;;;;;;;;;22.40;57.80;;;18.28;90.60;95151.16;4975417;28;19955;-50
2023/06/30 05:05:58;;;;;;;;;;;22.50;57.70;;;18.36;90.04;95155.69;4976093;28;19910;-51
2023/06/30 05:08:23;;;;;;;;;;;22.60;57.60;;;18.49;89.41;95154.69;4992067;28;19910;-48
2023/06/30 05:10:49;;;;;;;;;;;22.60;57.30;;;18.52;89.07;95157.84;4993774;28;20376;-48
2023/06/30 05:13:15;;;;;;;;;;;22.70;57.20;;;18.56;89.03;95159.59;4991612;28;20068;-51
2023/06/30 05:15:41;;;;;;;;;;;22.80;57.00;;;18.58;88.73;95151.16;4994573;28;20008;-53
2023/06/30 05:18:07;;;;;;;;;;;22.80;56.90;;;18.64;88.54;95150.63;4982606;28;20152;-53
2023/06/30 05:20:33;;;;;;;;;;;22.90;56.70;;;18.65;88.43;95149.53;4976207;28;19914;-53
2023/06/30 05:23:00;;;;;;;;;;;22.90;56.50;;;18.72;88.40;95155.22;4991603;28;19954;-53
2023/06/30 05:25:26;;;;;;;;;;;23.00;56.40;;;18.82;87.87;95164.06;4961673;28;20020;-50
2023/06/30 05:27:51;;;;;;;;;;;23.10;56.30;;;18.80;88.50;95160.91;4974743;28;20000;-52
2023/06/30 05:30:18;;;;;;;;;;;23.10;56.30;;;18.76;88.73;95166.16;4975114;28;19913;-53
2023/06/30 05:32:44;;;;;;;;;;;23.00;56.20;;;18.78;89.18;95173.94;4972686;28;20410;-52
2023/06/30 05:35:10;;;;;;;;;;;23.10;56.20;;;18.88;88.84;95171.66;4971548;28;19944;-54
2023/06/30 05:37:36;;;;;;;;;;;23.10;56.00;;;18.87;88.87;95175.47;4972855;28;19952;-52
2023/06/30 05:40:03;;;;;;;;;;;23.20;56.60;;;18.87;89.07;95180.88;4969766;28;20364;-53
2023/06/30 05:42:29;;;;;;;;;;;23.20;55.90;;;18.94;89.00;95185.75;4984555;28;19910;-49
2023/06/30 05:44:54;;;;;;;;;;;23.30;55.80;;;19.06;88.82;95185.03;4966690;28;19971;-51
2023/06/30 05:47:20;;;;;;;;;;;23.30;55.70;;;19.10;88.57;95194.84;4970297;28;20541;-51
2023/06/30 05:49:46;;;;;;;;;;;23.40;55.70;;;19.07;88.81;95184.69;4972489;28;20017;-51
2023/06/30 05:52:12;;;;;;;;;;;23.40;55.60;;;19.09;88.73;95189.78;4974395;28;20107;-51
2023/06/30 05:54:38;;;;;;;;;;;23.50;55.60;;;19.01;88.80;95191.41;4973624;28;19924;-52
2023/06/30 05:57:04;;;;;;;;;;;23.50;55.50;;;19.09;88.65;95193.28;4955287;28;20033;-52
2023/06/30 05:59:30;;;;;;;;;;;23.50;55.30;;;19.11;88.43;95191.00;4954218;28;19910;-55
2023/06/30 06:01:56;;;;;;;;;;;23.60;55.80;;;19.19;88.44;95203.66;4954736;28;19916;-54
2023/06/30 06:04:22;;;;;;;;;;;23.60;55.20;;;19.17;88.55;95205.91;4955038;28;19917;-50
2023/06/30 06:06:48;;;;;;;;;;;23.60;55.10;;;19.15;88.62;95204.66;4953718;28;19914;-52
2023/06/30 06:09:14;;;;;;;;;;;23.60;55.70;;;19.19;88.55;95214.47;4955020;28;19917;-52
2023/06/30 06:11:39;;;;;;;;;;;23.50;55.10;;;19.17;88.12;95208.59;4954199;28;19952;-54
2023/06/30 06:14:05;;;;;;;;;;;23.50;55.20;;;19.12;88.51;95208.81;4954932;28;19913;-52
2023/06/30 06:16:31;;;;;;;;;;;23.40;55.20;;;18.99;89.16;95217.94;4954672;28;20388;-52
2023/06/30 06:18:57;;;;;;;;;;;23.40;55.30;;;18.97;89.50;95219.38;4953116;28;19920;-51
2023/06/30 06:21:27;;;;;;;;;;;23.30;55.30;;;18.97;90.76;95217.47;4952483;28;20293;-54
2023/06/30 06:23:56;;;;;;;;;;;23.30;55.40;;;19.00;92.62;95219.53;4951466;28;19917;-53
2023/06/30 06:26:22;;;;;;;;;;;23.20;55.40;;;19.04;93.23;95220.44;4950790;28;20598;-53
2023/06/30 06:28:48;;;;;;;;;;;23.20;55.30;;;19.09;93.34;95227.56;4952381;28;19914;-48
2023/06/30 06:31:14;;;;;;;;;;;23.30;55.40;;;19.12;92.95;95229.63;4954787;28;20432;-50
2023/06/30 06:33:39;;;;;;;;;;;23.40;55.30;;;19.11;93.12;95226.09;4967837;28;19914;-53
2023/06/30 06:36:05;;;;;;;;;;;23.50;55.30;;;19.14;93.79;95221.97;4955651;28;19921;-50
2023/06/30 06:38:31;;;;;;;;;;;23.50;55.20;;;19.15;93.43;95226.25;4958411;28;20082;-54
2023/06/30 06:40:56;;;;;;;;;;;23.60;55.30;;;19.18;93.79;95231.00;4946115;28;19910;-52
2023/06/30 06:43:26;;;;;;;;;;;23.60;55.20;;;19.22;94.17;95223.03;4954298;28;19964;-50
2023/06/30 06:45:52;;;;;;;;;;;23.60;55.20;;;19.31;94.26;95216.47;4954048;28;19917;-51
2023/06/30 06:48:23;;;;;;;;;;;23.70;55.20;;;19.20;91.10;95215.25;4952906;28;19910;-55
2023/06/30 06:50:50;;;;;;;;;;;23.80;55.20;;;19.25;92.58;95230.50;4954520;28;20008;-53
2023/06/30 06:53:24;;;;;;;;;;;23.90;55.10;;;19.30;91.67;95231.06;4953221;28;19921;-51
2023/06/30 06:55:52;;;;;;;;;;;23.80;55.10;;;19.33;91.05;95235.81;4963278;28;20277;-52
2023/06/30 06:58:19;;;;;;;;;;;23.80;55.10;;;19.30;89.52;95230.28;4973445;28;19913;-53
2023/06/30 07:00:48;;;;;;;;;;;23.70;55.10;;;19.24;89.15;95227.00;4972417;28;19916;-50
2023/06/30 07:03:14;;;;;;;;;;;23.70;55.10;;;19.28;89.22;95227.13;4965253;28;20356;-54
2023/06/30 07:05:40;;;;;;;;;;;23.70;55.20;;;19.24;88.36;95228.88;4967329;28;19910;-52
2023/06/30 07:08:10;;;;;;;;;;;23.70;55.20;;;19.17;87.50;95238.28;4973393;28;19916;-52
2023/06/30 07:10:36;;;;;;;;;;;23.70;55.10;;;19.18;87.44;95233.72;4973332;28;20356;-49
2023/06/30 07:13:04;;;;;;;;;;;23.70;55.00;;;19.08;86.85;95229.47;4971612;28;19918;-53
2023/06/30 07:15:30;;;;;;;;;;;23.70;54.90;;;19.03;86.72;95237.75;4972729;28;19909;-51
2023/06/30 07:17:56;;;;;;;;;;;23.70;54.90;;;19.07;86.88;95246.00;4972447;28;19941;-52
2023/06/30 07:20:23;;;;;;;;;;;23.60;54.80;;;19.04;87.30;95242.03;4973313;28;19910;-53
2023/06/30 07:22:50;;;;;;;;;;;23.60;54.80;;;19.05;87.48;95240.91;4970131;28;20289;-50
2023/06/30 07:25:16;;;;;;;;;;;23.60;54.80;;;19.00;87.79;95240.31;4972115;28;19910;-49
2023/06/30 07:27:53;;;;;;;;;;;23.50;54.80;;;18.97;87.05;95241.75;4986126;28;20317;-50
2023/06/30 07:30:21;;;;;;;;;;;23.50;54.90;;;18.82;88.47;95245.00;4979572;28;19910;-51
2023/06/30 07:32:49;;;;;;;;;;;23.40;54.80;;;18.81;88.87;95238.03;4976739;28;20412;-48
2023/06/30 07:35:18;;;;;;;;;;;23.30;54.90;;;18.85;89.29;95244.38;4972273;28;19913;-48
2023/06/30 07:37:45;;;;;;;;;;;23.30;54.90;;;18.87;88.79;95247.53;4972373;28;20288;-48
2023/06/30 07:40:12;;;;;;;;;;;23.30;55.00;;;18.76;90.12;95244.41;4973074;28;20008;-54
2023/06/30 07:42:39;;;;;;;;;;;23.20;55.00;;;18.69;92.69;95246.78;4971970;28;19914;-48
2023/06/30 07:45:11;;;;;;;;;;;23.10;55.00;;;18.61;94.02;95250.31;4972939;28;19910;-53
2023/06/30 07:47:41;;;;;;;;;;;23.00;55.10;;;18.60;94.80;95252.22;4972049;28;20435;-54
2023/06/30 07:50:11;;;;;;;;;;;22.90;55.20;;;18.54;96.31;95250.81;4972973;28;20315;-52
2023/06/30 07:52:50;;;;;;;;;;;22.80;55.30;;;18.44;97.32;95248.47;4972329;28;20024;-53
2023/06/30 07:55:17;;;;;;;;;;;22.70;55.40;;;18.41;97.28;95249.91;4970623;28;19941;-51
2023/06/30 07:57:45;;;;;;;;;;;22.60;55.60;;;18.30;98.99;95251.38;4961111;28;20382;-52
2023/06/30 08:00:15;;;;;;;;;;;22.50;55.80;;;18.26;99.07;95250.41;4971905;28;19917;-50
2023/06/30 08:02:42;;;;;;;;;;;22.50;55.90;;;18.22;99.58;95250.28;4972878;28;19916;-52
2023/06/30 08:05:08;;;;;;;;;;;22.40;56.00;;;18.18;100.00;95251.25;4971969;28;20288;-50
2023/06/30 08:07:34;;;;;;;;;;;22.40;56.00;;;18.19;100.00;95255.50;4981421;28;20076;-48
2023/06/30 08:09:59;;;;;;;;;;;22.40;56.10;;;18.03;100.00;95255.22;4992344;28;20004;-47
2023/06/30 08:12:25;;;;;;;;;;;22.30;56.20;;;17.99;100.00;95259.69;4986245;28;19910;-49
2023/06/30 08:14:52;;;;;;;;;;;22.30;56.40;;;18.10;100.00;95260.13;4992160;28;20280;-50
2023/06/30 08:17:18;;;;;;;;;;;22.30;56.50;;;18.11;100.00;95250.91;4988455;28;20004;-50
2023/06/30 08:19:43;;;;;;;;;;;22.30;56.50;;;18.17;100.00;95265.81;4987687;28;20068;-49
2023/06/30 08:22:13;;;;;;;;;;;22.40;56.50;;;18.22;100.00;95266.44;4987533;28;19909;-49
2023/06/30 08:24:48;;;;;;;;;;;22.40;56.60;;;18.22;100.00;95276.44;4980062;28;20288;-49
2023/06/30 08:27:16;;;;;;;;;;;22.50;56.60;;;18.17;100.00;95271.19;4995621;28;19909;-47
2023/06/30 08:29:42;;;;;;;;;;;22.50;56.60;;;18.17;100.00;95271.19;4992032;28;20012;-48
2023/06/30 08:32:08;;;;;;;;;;;22.50;56.70;;;18.22;100.00;95274.53;4995308;28;20060;-47
2023/06/30 08:34:34;;;;;;;;;;;22.50;56.80;;;18.20;100.00;95271.34;4995474;28;19984;-48
2023/06/30 08:37:00;;;;;;;;;;;22.50;56.80;;;18.17;100.00;95273.91;4985675;28;20353;-48
2023/06/30 08:39:28;;;;;;;;;;;22.50;56.80;;;18.11;98.94;95277.88;4987490;28;20367;-52
2023/06/30 08:41:55;;;;;;;;;;;22.50;56.80;;;18.10;99.21;95279.78;4977362;28;19909;-51
2023/06/30 08:44:25;;;;;;;;;;;22.60;56.90;;;18.16;100.00;95283.91;4986526;28;19917;-47
2023/06/30 08:46:56;;;;;;;;;;;22.60;56.90;;;18.26;100.00;95272.75;4990240;28;19925;-47
2023/06/30 08:49:24;;;;;;;;;;;22.60;56.80;;;18.24;99.72;95266.94;4986811;28;19917;-48
2023/06/30 08:51:58;;;;;;;;;;;22.80;56.70;;;18.34;97.50;95267.69;4995011;28;20058;-47
2023/06/30 08:54:28;;;;;;;;;;;22.90;56.60;;;18.43;99.23;95269.25;4981800;28;19913;-50
2023/06/30 08:56:56;;;;;;;;;;;23.10;56.50;;;18.52;98.62;95274.63;4976750;28;19924;-48
2023/06/30 08:59:22;;;;;;;;;;;23.20;56.40;;;18.63;97.32;95272.34;4998592;28;19913;-52
2023/06/30 09:01:49;;;;;;;;;;;23.40;56.30;;;18.67;96.04;95268.69;4994888;28;19921;-48
2023/06/30 09:04:15;;;;;;;;;;;23.50;56.20;;;18.67;94.78;95259.78;4995053;28;19909;-51
2023/06/30 09:06:48;;;;;;;;;;;23.60;56.60;;;18.88;96.22;95263.38;4985642;28;20339;-49
2023/06/30 09:09:25;;;;;;;;;;;23.80;56.40;;;18.99;93.74;95263.00;4994833;28;19914;-48
2023/06/30 09:11:52;;;;;;;;;;;24.00;55.70;;;19.06;92.44;95266.00;4977524;28;19910;-48
2023/06/30 09:14:22;;;;;;;;;;;24.10;55.40;;;19.10;93.29;95275.81;4977605;28;20005;-49
2023/06/30 09:16:48;;;;;;;;;;;24.20;55.40;;;19.15;91.23;95283.75;4994881;28;19936;-48
2023/06/30 09:19:15;;;;;;;;;;;24.20;55.30;;;19.08;91.06;95282.66;4989449;28;20436;-48
2023/06/30 09:21:41;;;;;;;;;;;24.20;55.20;;;19.14;90.46;95282.13;4994503;28;20394;-48
2023/06/30 09:24:07;;;;;;;;;;;24.20;55.20;;;19.15;90.72;95289.16;4977495;28;19921;-51
2023/06/30 09:26:34;;;;;;;;;;;24.20;55.10;;;19.14;87.13;95282.13;4964747;28;19909;-49
2023/06/30 09:29:01;;;;;;;;;;;24.20;55.00;;;19.24;86.89;95280.19;4968591;28;20288;-51
2023/06/30 09:31:33;;;;;;;;;;;24.30;54.90;;;19.32;87.68;95272.03;4959327;28;20413;-49
2023/06/30 09:34:12;;;;;;;;;;;24.40;54.70;;;19.54;88.39;95262.03;4972370;28;19914;-48
2023/06/30 09:36:46;;;;;;;;;;;24.70;54.50;;;19.70;90.16;95254.16;4971055;28;19910;-48
2023/06/30 09:39:13;;;;;;;;;;;24.90;54.30;;;19.91;88.58;95249.53;4962467;28;19909;-51
2023/06/30 09:41:45;;;;;;;;;;;25.20;54.20;;;20.06;88.76;95242.72;4974157;28;20300;-48
2023/06/30 09:44:15;;;;;;;;;;;25.30;53.90;;;20.19;88.38;95243.56;4974728;28;19910;-49
2023/06/30 09:46:51;;;;;;;;;;;25.70;53.80;;;20.34;84.32;95246.41;4969484;28;19911;-49
2023/06/30 09:49:35;;;;;;;;;;;25.90;53.50;;;20.40;79.73;95244.28;4979938;28;19910;-50
2023/06/30 09:52:03;;;;;;;;;;;26.20;53.20;;;20.53;80.28;95237.00;4993934;28;19963;-50
2023/06/30 09:54:30;;;;;;;;;;;26.50;52.90;;;20.70;79.05;95234.09;4986296;28;19913;-52
2023/06/30 09:57:01;;;;;;;;;;;26.70;52.60;;;21.03;77.62;95239.41;4989778;28;19921;-49
2023/06/30 09:59:28;;;;;;;;;;;26.90;52.40;;;21.26;75.24;95241.63;4989426;28;20153;-49
2023/06/30 10:01:59;;;;;;;;;;;27.20;52.20;;;21.44;74.25;95240.28;4990405;28;19909;-51
2023/06/30 10:04:27;;;;;;;;;;;27.50;51.90;;;21.50;73.06;95243.53;4980094;28;19909;-49
2023/06/30 10:06:54;;;;;;;;;;;27.70;51.50;;;21.66;72.33;95240.91;4976305;28;20330;-49
2023/06/30 10:09:23;;;;;;;;;;;27.90;51.70;;;21.84;71.93;95238.69;4993670;28;20362;-48
2023/06/30 10:11:56;;;;;;;;;;;28.20;50.90;;;22.00;73.21;95242.25;4989522;28;19909;-49
2023/06/30 10:14:31;;;;;;;;;;;28.40;51.10;;;22.05;69.33;95238.50;4980395;28;19944;-51
2023/06/30 10:17:00;;;;;;;;;;;28.60;50.20;;;21.98;70.73;95244.50;4992246;28;19910;-50
2023/06/30 10:19:28;;;;;;;;;;;28.70;49.50;;;22.15;70.81;95252.31;4987179;28;19963;-49
2023/06/30 10:21:56;;;;;;;;;;;28.90;49.50;;;22.45;70.17;95243.84;4983746;28;19913;-51
2023/06/30 10:24:37;;;;;;;;;;;29.30;49.30;;;22.93;69.67;95241.91;4981990;28;20008;-54
2023/06/30 10:27:08;;;;;;;;;;;29.70;49.00;;;23.30;66.08;95236.22;4992347;28;20335;-54
2023/06/30 10:29:35;;;;;;;;;;;30.20;48.60;;;23.63;65.62;95241.22;4991679;28;19916;-49
2023/06/30 10:32:03;;;;;;;;;;;30.70;48.20;;;23.92;62.72;95245.31;4993302;28;19909;-51
2023/06/30 10:34:30;;;;;;;;;;;31.10;47.80;;;24.02;60.80;95236.59;4993143;28;19914;-51
2023/06/30 10:36:58;;;;;;;;;;;31.40;47.40;;;24.36;60.34;95246.94;4987487;28;19910;-50
2023/06/30 10:39:25;;;;;;;;;;;31.70;47.20;;;24.73;58.76;95236.34;4990152;28;19909;-50
2023/06/30 10:41:51;;;;;;;;;;;31.90;46.80;;;24.89;58.95;95242.44;4974350;28;20394;-49
2023/06/30 10:44:19;;;;;;;;;;;32.10;46.40;;;25.01;58.35;95241.47;4979949;28;19913;-53
2023/06/30 10:46:49;;;;;;;;;;;32.10;46.00;;;25.10;56.56;95244.72;4981491;28;19909;-50
2023/06/30 10:49:29;;;;;;;;;;;32.30;45.80;;;25.37;53.71;95237.34;4976460;28;20288;-50
2023/06/30 10:52:00;;;;;;;;;;;32.50;45.30;;;25.79;52.98;95233.63;4993030;28;20380;-55
2023/06/30 10:54:42;;;;;;;;;;;33.00;44.90;;;26.15;51.39;95230.56;4980517;28;19973;-54
2023/06/30 10:57:25;;;;;;;;;;;33.70;44.20;;;26.59;50.75;95224.41;4908313;23;1911594;-49
2023/06/30 11:00:13;;;;;;;;;;;34.20;43.30;;;26.82;48.24;95216.03;4940868;28;20009;-48
2023/06/30 11:02:58;;;;;;;;;;;34.90;42.60;;;27.11;51.77;95214.31;4968683;28;19957;-49
2023/06/30 11:05:27;;;;;;;;;;;35.40;42.20;;;26.88;47.79;95215.28;4952767;28;19910;-49
2023/06/30 11:08:04;;;;;;;;;;;35.80;41.70;;;27.29;47.29;95211.69;4954055;28;20379;-50
2023/06/30 11:10:38;;;;;;;;;;;36.00;41.30;;;27.72;45.38;95207.25;4954188;28;19910;-50
2023/06/30 11:13:09;;;;;;;;;;;36.30;40.90;;;27.96;45.09;95199.56;4953103;28;19914;-48
2023/06/30 11:15:42;;;;;;;;;;;36.30;40.80;;;28.09;45.54;95206.25;4953973;28;19917;-47
2023/06/30 11:18:22;;;;;;;;;;;36.30;40.80;;;28.28;44.83;95200.44;4953145;28;19910;-47